BRX292 ESGG-ESSB
Flight info
| Callsign | BRX292 |
|---|---|
| Flight time | 0h 41m |
| Altitude | 29000 |
| Route | LABAN Y430 TINKA |
| Aircraft | RJ85/M-SDFGIRWY/LB1 |
Departure
| Time | 2026-05-07 19:24 |
|---|---|
| Airport | Göteborg Landvetter Airport (ESGG) |
Arrival
| Time | 2026-05-07 20:05 |
|---|---|
| Airport | Stockholm-Bromma Airport (ESSB) |
| Time | Latitude | Longitude | Altitude | Speed | Heading |
|---|---|---|---|---|---|
| 2026-05-07 19:02 | 57.66970 | 12.29508 | 516 ft | 0 kts | 116° |
| 2026-05-07 19:11 | 57.66977 | 12.29481 | 516 ft | 3 kts | 116° |
| 2026-05-07 19:12 | 57.66985 | 12.29450 | 516 ft | 3 kts | 116° |
| 2026-05-07 19:12 | 57.66994 | 12.29419 | 516 ft | 3 kts | 124° |
| 2026-05-07 19:12 | 57.67007 | 12.29395 | 516 ft | 3 kts | 151° |
| 2026-05-07 19:12 | 57.67024 | 12.29386 | 516 ft | 1 kts | 178° |
| 2026-05-07 19:13 | 57.67025 | 12.29385 | 516 ft | 0 kts | 180° |
| 2026-05-07 19:18 | 57.67023 | 12.29385 | 516 ft | 2 kts | 180° |
| 2026-05-07 19:18 | 57.66991 | 12.29366 | 516 ft | 6 kts | 210° |
| 2026-05-07 19:19 | 57.66984 | 12.29301 | 516 ft | 6 kts | 294° |
| 2026-05-07 19:19 | 57.67005 | 12.29209 | 516 ft | 9 kts | 280° |
| 2026-05-07 19:19 | 57.66970 | 12.29122 | 516 ft | 10 kts | 206° |
| 2026-05-07 19:19 | 57.66902 | 12.29054 | 515 ft | 12 kts | 201° |
| 2026-05-07 19:20 | 57.66827 | 12.28986 | 515 ft | 6 kts | 219° |
| 2026-05-07 19:20 | 57.66783 | 12.28949 | 515 ft | 9 kts | 203° |
| 2026-05-07 19:20 | 57.66717 | 12.28888 | 515 ft | 13 kts | 207° |
| 2026-05-07 19:20 | 57.66656 | 12.28797 | 515 ft | 9 kts | 268° |
| 2026-05-07 19:21 | 57.66648 | 12.28658 | 512 ft | 13 kts | 213° |
| 2026-05-07 19:21 | 57.66560 | 12.28578 | 511 ft | 15 kts | 206° |
| 2026-05-07 19:21 | 57.66455 | 12.28482 | 511 ft | 18 kts | 206° |
| 2026-05-07 19:21 | 57.66331 | 12.28368 | 511 ft | 21 kts | 206° |
| 2026-05-07 19:22 | 57.66188 | 12.28237 | 510 ft | 24 kts | 205° |
| 2026-05-07 19:22 | 57.66029 | 12.28096 | 508 ft | 26 kts | 206° |
| 2026-05-07 19:22 | 57.65865 | 12.27945 | 506 ft | 26 kts | 206° |
| 2026-05-07 19:22 | 57.65729 | 12.27822 | 505 ft | 12 kts | 209° |
| 2026-05-07 19:23 | 57.65727 | 12.27689 | 504 ft | 12 kts | 321° |
| 2026-05-07 19:23 | 57.65810 | 12.27661 | 505 ft | 13 kts | 358° |
| 2026-05-07 19:23 | 57.65907 | 12.27657 | 506 ft | 15 kts | 0° |
| 2026-05-07 19:23 | 57.66062 | 12.27780 | 508 ft | 51 kts | 25° |
| 2026-05-07 19:24 | 57.66388 | 12.28075 | 510 ft | 100 kts | 26° |
| 2026-05-07 19:24 | 57.67186 | 12.28727 | 717 ft | 140 kts | 20° |
| 2026-05-07 19:24 | 57.68078 | 12.29414 | 1565 ft | 136 kts | 22° |
| 2026-05-07 19:24 | 57.68955 | 12.30178 | 2381 ft | 139 kts | 24° |
| 2026-05-07 19:25 | 57.69817 | 12.31054 | 3014 ft | 152 kts | 40° |
| 2026-05-07 19:25 | 57.70582 | 12.32590 | 3319 ft | 176 kts | 48° |
| 2026-05-07 19:25 | 57.71455 | 12.34394 | 3424 ft | 194 kts | 48° |
| 2026-05-07 19:25 | 57.72370 | 12.36291 | 3770 ft | 201 kts | 49° |
| 2026-05-07 19:26 | 57.73339 | 12.38316 | 4203 ft | 210 kts | 49° |
| 2026-05-07 19:26 | 57.74321 | 12.40354 | 4891 ft | 212 kts | 49° |
| 2026-05-07 19:26 | 57.75328 | 12.42430 | 5418 ft | 222 kts | 49° |
| 2026-05-07 19:26 | 57.76403 | 12.44654 | 5793 ft | 238 kts | 49° |
| 2026-05-07 19:27 | 57.77544 | 12.47027 | 6192 ft | 253 kts | 49° |
| 2026-05-07 19:27 | 57.78749 | 12.49534 | 6669 ft | 263 kts | 49° |
| 2026-05-07 19:27 | 57.79995 | 12.52089 | 7279 ft | 267 kts | 48° |
| 2026-05-07 19:27 | 57.81250 | 12.54676 | 7957 ft | 270 kts | 48° |
| 2026-05-07 19:28 | 57.82515 | 12.57304 | 8685 ft | 272 kts | 47° |
| 2026-05-07 19:28 | 57.83794 | 12.59943 | 9461 ft | 275 kts | 47° |
| 2026-05-07 19:28 | 57.85083 | 12.62617 | 10259 ft | 278 kts | 47° |
| 2026-05-07 19:28 | 57.86384 | 12.65323 | 11027 ft | 281 kts | 47° |
| 2026-05-07 19:29 | 57.87714 | 12.68060 | 11847 ft | 286 kts | 46° |
| 2026-05-07 19:29 | 57.89069 | 12.70842 | 12685 ft | 290 kts | 46° |
| 2026-05-07 19:29 | 57.90461 | 12.73713 | 13202 ft | 306 kts | 46° |
| 2026-05-07 19:29 | 57.91934 | 12.76754 | 13541 ft | 322 kts | 46° |
| 2026-05-07 19:30 | 57.93477 | 12.79947 | 13828 ft | 337 kts | 46° |
| 2026-05-07 19:30 | 57.95074 | 12.83257 | 14131 ft | 346 kts | 46° |
| 2026-05-07 19:30 | 57.96705 | 12.86646 | 14556 ft | 349 kts | 46° |
| 2026-05-07 19:30 | 57.98339 | 12.90050 | 14999 ft | 352 kts | 46° |
| 2026-05-07 19:31 | 57.99986 | 12.93491 | 15428 ft | 354 kts | 46° |
| 2026-05-07 19:31 | 58.01637 | 12.96953 | 15862 ft | 357 kts | 46° |
| 2026-05-07 19:31 | 58.03300 | 13.00450 | 16286 ft | 359 kts | 46° |
| 2026-05-07 19:31 | 58.04972 | 13.03978 | 16705 ft | 362 kts | 46° |
| 2026-05-07 19:32 | 58.06657 | 13.07543 | 17120 ft | 364 kts | 46° |
| 2026-05-07 19:32 | 58.08349 | 13.11134 | 17540 ft | 367 kts | 46° |
| 2026-05-07 19:32 | 58.10051 | 13.14752 | 17947 ft | 370 kts | 46° |
| 2026-05-07 19:32 | 58.11790 | 13.18452 | 18351 ft | 373 kts | 46° |
| 2026-05-07 19:33 | 58.13507 | 13.22070 | 18699 ft | 375 kts | 45° |
| 2026-05-07 19:33 | 58.15289 | 13.25801 | 19045 ft | 378 kts | 46° |
| 2026-05-07 19:33 | 58.17022 | 13.29565 | 19393 ft | 381 kts | 49° |
| 2026-05-07 19:33 | 58.18630 | 13.33574 | 19729 ft | 384 kts | 52° |
| 2026-05-07 19:34 | 58.20162 | 13.37733 | 20070 ft | 387 kts | 53° |
| 2026-05-07 19:34 | 58.21670 | 13.41970 | 20406 ft | 389 kts | 54° |
| 2026-05-07 19:34 | 58.23190 | 13.46242 | 20739 ft | 392 kts | 53° |
| 2026-05-07 19:34 | 58.24725 | 13.50540 | 21071 ft | 394 kts | 53° |
| 2026-05-07 19:35 | 58.26268 | 13.54852 | 21400 ft | 396 kts | 53° |
| 2026-05-07 19:35 | 58.27842 | 13.59172 | 21729 ft | 399 kts | 53° |
| 2026-05-07 19:35 | 58.29430 | 13.63522 | 22051 ft | 401 kts | 52° |
| 2026-05-07 19:35 | 58.31023 | 13.67888 | 22384 ft | 403 kts | 52° |
| 2026-05-07 19:36 | 58.32619 | 13.72271 | 22695 ft | 405 kts | 52° |
| 2026-05-07 19:36 | 58.34226 | 13.76705 | 23001 ft | 408 kts | 53° |
| 2026-05-07 19:36 | 58.35814 | 13.81180 | 23298 ft | 410 kts | 53° |
| 2026-05-07 19:36 | 58.37428 | 13.85691 | 23599 ft | 412 kts | 53° |
| 2026-05-07 19:37 | 58.39050 | 13.90206 | 23874 ft | 414 kts | 53° |
| 2026-05-07 19:37 | 58.40681 | 13.94747 | 24142 ft | 415 kts | 53° |
| 2026-05-07 19:37 | 58.42310 | 13.99298 | 24399 ft | 417 kts | 53° |
| 2026-05-07 19:37 | 58.43947 | 14.03872 | 24659 ft | 418 kts | 53° |
| 2026-05-07 19:38 | 58.45590 | 14.08473 | 24880 ft | 420 kts | 53° |
| 2026-05-07 19:38 | 58.47220 | 14.13051 | 25371 ft | 415 kts | 53° |
| 2026-05-07 19:38 | 58.48832 | 14.17601 | 25727 ft | 413 kts | 53° |
| 2026-05-07 19:38 | 58.50440 | 14.22162 | 26050 ft | 413 kts | 53° |
| 2026-05-07 19:39 | 58.52042 | 14.26718 | 26368 ft | 412 kts | 53° |
| 2026-05-07 19:39 | 58.53637 | 14.31274 | 26698 ft | 411 kts | 53° |
| 2026-05-07 19:39 | 58.55223 | 14.35821 | 27012 ft | 411 kts | 53° |
| 2026-05-07 19:39 | 58.56807 | 14.40379 | 27327 ft | 410 kts | 53° |
| 2026-05-07 19:40 | 58.58384 | 14.44928 | 27641 ft | 410 kts | 52° |
| 2026-05-07 19:40 | 58.59976 | 14.49452 | 27930 ft | 409 kts | 52° |
| 2026-05-07 19:40 | 58.61571 | 14.53962 | 28222 ft | 408 kts | 52° |
| 2026-05-07 19:40 | 58.63150 | 14.58497 | 28506 ft | 408 kts | 53° |
| 2026-05-07 19:41 | 58.64713 | 14.63038 | 28787 ft | 408 kts | 52° |
| 2026-05-07 19:41 | 58.66286 | 14.67554 | 29015 ft | 406 kts | 52° |
| 2026-05-07 19:41 | 58.69421 | 14.76540 | 29126 ft | 400 kts | 52° |
| 2026-05-07 19:42 | 58.72499 | 14.85519 | 29136 ft | 403 kts | 52° |
| 2026-05-07 19:42 | 58.75594 | 14.94514 | 29141 ft | 403 kts | 52° |
| 2026-05-07 19:43 | 58.78694 | 15.03538 | 29151 ft | 405 kts | 52° |
| 2026-05-07 19:43 | 58.81793 | 15.12621 | 29149 ft | 406 kts | 52° |
| 2026-05-07 19:44 | 58.84877 | 15.21774 | 27918 ft | 413 kts | 52° |
| 2026-05-07 19:44 | 58.86473 | 15.26475 | 26698 ft | 425 kts | 53° |
| 2026-05-07 19:44 | 58.88114 | 15.31340 | 25473 ft | 436 kts | 53° |
| 2026-05-07 19:45 | 58.89781 | 15.36265 | 24468 ft | 440 kts | 53° |
| 2026-05-07 19:45 | 58.91450 | 15.41232 | 23659 ft | 439 kts | 54° |
| 2026-05-07 19:45 | 58.93090 | 15.46177 | 22803 ft | 435 kts | 54° |
| 2026-05-07 19:45 | 58.94712 | 15.51088 | 22066 ft | 428 kts | 54° |
| 2026-05-07 19:46 | 58.96315 | 15.55882 | 21342 ft | 422 kts | 53° |
| 2026-05-07 19:46 | 58.97904 | 15.60593 | 20905 ft | 410 kts | 54° |
| 2026-05-07 19:46 | 58.99420 | 15.65172 | 20529 ft | 399 kts | 54° |
| 2026-05-07 19:46 | 59.00909 | 15.69669 | 20000 ft | 392 kts | 53° |
| 2026-05-07 19:47 | 59.02385 | 15.74073 | 19399 ft | 387 kts | 53° |
| 2026-05-07 19:47 | 59.03843 | 15.78437 | 18824 ft | 383 kts | 54° |
| 2026-05-07 19:47 | 59.05270 | 15.82789 | 18205 ft | 379 kts | 54° |
| 2026-05-07 19:47 | 59.06653 | 15.87034 | 17930 ft | 365 kts | 54° |
| 2026-05-07 19:48 | 59.07987 | 15.91133 | 17721 ft | 351 kts | 54° |
| 2026-05-07 19:48 | 59.09283 | 15.95057 | 17469 ft | 340 kts | 54° |
| 2026-05-07 19:48 | 59.10555 | 15.98895 | 17063 ft | 335 kts | 53° |
| 2026-05-07 19:48 | 59.11813 | 16.02695 | 16625 ft | 332 kts | 54° |
| 2026-05-07 19:49 | 59.13036 | 16.06460 | 16395 ft | 323 kts | 54° |
| 2026-05-07 19:49 | 59.14218 | 16.10121 | 16088 ft | 317 kts | 54° |
| 2026-05-07 19:49 | 59.15403 | 16.13736 | 15723 ft | 315 kts | 54° |
| 2026-05-07 19:49 | 59.16571 | 16.17311 | 15365 ft | 312 kts | 54° |
| 2026-05-07 19:50 | 59.17726 | 16.20888 | 14999 ft | 310 kts | 54° |
| 2026-05-07 19:50 | 59.18865 | 16.24430 | 14640 ft | 308 kts | 54° |
| 2026-05-07 19:50 | 59.19996 | 16.27953 | 14287 ft | 305 kts | 56° |
| 2026-05-07 19:50 | 59.20974 | 16.31590 | 13936 ft | 305 kts | 63° |
| 2026-05-07 19:51 | 59.21809 | 16.35461 | 13666 ft | 307 kts | 66° |
| 2026-05-07 19:51 | 59.22569 | 16.39336 | 13486 ft | 305 kts | 67° |
| 2026-05-07 19:51 | 59.23305 | 16.43206 | 13299 ft | 305 kts | 67° |
| 2026-05-07 19:51 | 59.24031 | 16.47091 | 13109 ft | 303 kts | 68° |
| 2026-05-07 19:52 | 59.24747 | 16.50953 | 12926 ft | 302 kts | 68° |
| 2026-05-07 19:52 | 59.25474 | 16.54795 | 12743 ft | 301 kts | 67° |
| 2026-05-07 19:52 | 59.26204 | 16.58608 | 12561 ft | 299 kts | 67° |
| 2026-05-07 19:52 | 59.26935 | 16.62416 | 12377 ft | 298 kts | 67° |
| 2026-05-07 19:53 | 59.27661 | 16.66196 | 12044 ft | 296 kts | 67° |
| 2026-05-07 19:53 | 59.28384 | 16.69957 | 11699 ft | 294 kts | 67° |
| 2026-05-07 19:53 | 59.29097 | 16.73672 | 11343 ft | 292 kts | 67° |
| 2026-05-07 19:53 | 59.29810 | 16.77380 | 11007 ft | 290 kts | 67° |
| 2026-05-07 19:54 | 59.30516 | 16.81055 | 10665 ft | 288 kts | 67° |
| 2026-05-07 19:54 | 59.31208 | 16.84663 | 10545 ft | 278 kts | 67° |
| 2026-05-07 19:54 | 59.31877 | 16.88171 | 10287 ft | 275 kts | 67° |
| 2026-05-07 19:54 | 59.32544 | 16.91675 | 10002 ft | 273 kts | 67° |
| 2026-05-07 19:55 | 59.33204 | 16.95138 | 9694 ft | 271 kts | 67° |
| 2026-05-07 19:55 | 59.33848 | 16.98593 | 9382 ft | 269 kts | 68° |
| 2026-05-07 19:55 | 59.34478 | 17.02020 | 9059 ft | 267 kts | 68° |
| 2026-05-07 19:55 | 59.35111 | 17.05420 | 8759 ft | 264 kts | 67° |
| 2026-05-07 19:56 | 59.35745 | 17.08784 | 8466 ft | 262 kts | 68° |
| 2026-05-07 19:56 | 59.36365 | 17.12123 | 8179 ft | 260 kts | 68° |
| 2026-05-07 19:56 | 59.36980 | 17.15432 | 7887 ft | 258 kts | 68° |
| 2026-05-07 19:56 | 59.37594 | 17.18721 | 7563 ft | 257 kts | 68° |
| 2026-05-07 19:57 | 59.38209 | 17.21999 | 7287 ft | 255 kts | 68° |
| 2026-05-07 19:57 | 59.38817 | 17.25234 | 7042 ft | 251 kts | 68° |
| 2026-05-07 19:57 | 59.39422 | 17.28441 | 6786 ft | 249 kts | 68° |
| 2026-05-07 19:57 | 59.40016 | 17.31588 | 6609 ft | 244 kts | 68° |
| 2026-05-07 19:58 | 59.40600 | 17.34698 | 6371 ft | 241 kts | 68° |
| 2026-05-07 19:58 | 59.41173 | 17.37790 | 6055 ft | 242 kts | 69° |
| 2026-05-07 19:58 | 59.41737 | 17.40881 | 5760 ft | 241 kts | 69° |
| 2026-05-07 19:58 | 59.42305 | 17.44005 | 5403 ft | 243 kts | 69° |
| 2026-05-07 19:59 | 59.42872 | 17.47115 | 5142 ft | 240 kts | 69° |
| 2026-05-07 19:59 | 59.43436 | 17.50190 | 4860 ft | 239 kts | 69° |
| 2026-05-07 19:59 | 59.44012 | 17.53294 | 4343 ft | 247 kts | 70° |
| 2026-05-07 19:59 | 59.44603 | 17.56492 | 3934 ft | 250 kts | 70° |
| 2026-05-07 20:00 | 59.45179 | 17.59630 | 3872 ft | 238 kts | 71° |
| 2026-05-07 20:00 | 59.45681 | 17.62645 | 3784 ft | 228 kts | 79° |
| 2026-05-07 20:00 | 59.45464 | 17.65613 | 3699 ft | 218 kts | 120° |
| 2026-05-07 20:00 | 59.44901 | 17.67207 | 3698 ft | 210 kts | 125° |
| 2026-05-07 20:01 | 59.44160 | 17.69621 | 3495 ft | 204 kts | 119° |
| 2026-05-07 20:01 | 59.43415 | 17.71858 | 3205 ft | 186 kts | 126° |
| 2026-05-07 20:01 | 59.42707 | 17.73828 | 2905 ft | 168 kts | 126° |
| 2026-05-07 20:01 | 59.42067 | 17.75621 | 2631 ft | 151 kts | 126° |
| 2026-05-07 20:02 | 59.41497 | 17.77216 | 2400 ft | 135 kts | 127° |
| 2026-05-07 20:02 | 59.40985 | 17.78644 | 2172 ft | 122 kts | 126° |
| 2026-05-07 20:02 | 59.40504 | 17.79985 | 1970 ft | 120 kts | 127° |
| 2026-05-07 20:02 | 59.40024 | 17.81326 | 1784 ft | 119 kts | 127° |
| 2026-05-07 20:03 | 59.39544 | 17.82661 | 1595 ft | 120 kts | 127° |
| 2026-05-07 20:03 | 59.39069 | 17.83993 | 1406 ft | 119 kts | 127° |
| 2026-05-07 20:03 | 59.38597 | 17.85314 | 1223 ft | 119 kts | 127° |
| 2026-05-07 20:03 | 59.38118 | 17.86657 | 1012 ft | 121 kts | 126° |
| 2026-05-07 20:04 | 59.37653 | 17.88013 | 802 ft | 119 kts | 126° |
| 2026-05-07 20:04 | 59.37189 | 17.89351 | 609 ft | 118 kts | 126° |
| 2026-05-07 20:04 | 59.36713 | 17.90663 | 414 ft | 119 kts | 127° |
| 2026-05-07 20:04 | 59.36222 | 17.91975 | 237 ft | 119 kts | 127° |
| 2026-05-07 20:05 | 59.35751 | 17.93286 | 58 ft | 112 kts | 125° |
| 2026-05-07 20:05 | 59.35368 | 17.94364 | 34 ft | 71 kts | 125° |
| 2026-05-07 20:05 | 59.35200 | 17.94825 | 40 ft | 24 kts | 126° |
| 2026-05-07 20:05 | 59.35161 | 17.94965 | 41 ft | 4 kts | 64° |
| 2026-05-07 20:06 | 59.35186 | 17.95009 | 42 ft | 7 kts | 36° |
| 2026-05-07 20:06 | 59.35238 | 17.95076 | 43 ft | 10 kts | 34° |
| 2026-05-07 20:06 | 59.35296 | 17.95057 | 40 ft | 11 kts | 288° |
| 2026-05-07 20:06 | 59.35305 | 17.94909 | 40 ft | 11 kts | 276° |
| 2026-05-07 20:07 | 59.35338 | 17.94785 | 40 ft | 10 kts | 306° |
| 2026-05-07 20:07 | 59.35382 | 17.94667 | 40 ft | 12 kts | 305° |
| 2026-05-07 20:07 | 59.35433 | 17.94525 | 40 ft | 14 kts | 305° |
| 2026-05-07 20:07 | 59.35490 | 17.94363 | 40 ft | 15 kts | 305° |
| 2026-05-07 20:08 | 59.35550 | 17.94195 | 40 ft | 11 kts | 305° |
| 2026-05-07 20:08 | 59.35607 | 17.94134 | 40 ft | 9 kts | 342° |
| 2026-05-07 20:08 | 59.35673 | 17.94105 | 40 ft | 9 kts | 12° |
| 2026-05-07 20:08 | 59.35710 | 17.94187 | 40 ft | 8 kts | 103° |
| 2026-05-07 20:09 | 59.35685 | 17.94269 | 40 ft | 6 kts | 125° |
| 2026-05-07 20:09 | 59.35661 | 17.94333 | 40 ft | 6 kts | 130° |
| 2026-05-07 20:09 | 59.35632 | 17.94380 | 40 ft | 2 kts | 139° |
| 2026-05-07 20:10 | 59.35605 | 17.94359 | 40 ft | 3 kts | 268° |
| 2026-05-07 20:10 | 59.35605 | 17.94348 | 40 ft | 0 kts | 268° |